createdAt,value
2024-05-09T00:00:36.103Z,20.80
2024-05-09T00:03:07.911Z,20.15
2024-05-09T00:05:35.644Z,18.95
2024-05-09T00:08:02.525Z,20.48
2024-05-09T00:10:35.789Z,21.63
2024-05-09T00:13:05.323Z,21.35
2024-05-09T00:15:33.317Z,20.35
2024-05-09T00:18:00.368Z,21.10
2024-05-09T00:20:35.292Z,20.55
2024-05-09T00:23:06.915Z,20.38
2024-05-09T00:25:33.961Z,20.45
2024-05-09T00:28:00.643Z,18.42
2024-05-09T00:30:33.672Z,20.65
2024-05-09T00:33:03.827Z,19.13
2024-05-09T00:35:31.041Z,18.60
2024-05-09T00:37:57.885Z,19.88
2024-05-09T00:40:35.168Z,20.05
2024-05-09T00:45:34.148Z,19.67
2024-05-09T00:48:07.329Z,18.17
2024-05-09T00:50:38.001Z,19.13
2024-05-09T00:53:11.492Z,19.65
2024-05-09T00:55:39.645Z,19.95
2024-05-09T00:58:07.837Z,20.05
2024-05-09T01:00:39.278Z,18.63
2024-05-09T01:03:10.052Z,19.50
2024-05-09T01:05:39.527Z,18.92
2024-05-09T01:08:07.244Z,20.50
2024-05-09T01:10:35.555Z,19.80
2024-05-09T01:13:07.250Z,20.75
2024-05-09T01:15:35.041Z,20.83
2024-05-09T01:18:09.585Z,22.08
2024-05-09T01:20:42.008Z,22.15
2024-05-09T01:23:11.947Z,21.67
2024-05-09T01:25:39.176Z,21.70
2024-05-09T01:28:06.284Z,21.90
2024-05-09T01:30:36.299Z,22.55
2024-05-09T01:33:06.817Z,21.02
2024-05-09T01:35:35.226Z,23.65
2024-05-09T01:38:02.111Z,22.63
2024-05-09T01:40:36.662Z,23.88
2024-05-09T01:43:06.094Z,22.48
2024-05-09T01:45:32.887Z,23.90
2024-05-09T01:47:59.867Z,23.05
2024-05-09T01:50:37.365Z,22.17
2024-05-09T01:53:08.585Z,22.80
2024-05-09T01:55:35.371Z,21.10
2024-05-09T01:58:01.916Z,22.13
2024-05-09T02:00:37.318Z,21.77
2024-05-09T02:03:10.006Z,22.65
2024-05-09T02:05:37.709Z,23.65
2024-05-09T02:08:05.446Z,22.83
2024-05-09T02:10:33.275Z,23.77
2024-05-09T02:13:00.396Z,25.70
2024-05-09T02:15:26.985Z,27.08
2024-05-09T02:17:54.026Z,26.35
2024-05-09T02:20:30.145Z,25.73
2024-05-09T02:23:03.741Z,23.23
2024-05-09T02:25:30.842Z,23.50
2024-05-09T02:27:57.468Z,22.27
2024-05-09T02:30:31.076Z,22.73
2024-05-09T02:35:32.864Z,21.55
2024-05-09T02:37:59.831Z,21.38
2024-05-09T02:40:35.490Z,21.58
2024-05-09T02:43:05.399Z,21.75
2024-05-09T02:45:32.216Z,20.42
2024-05-09T02:47:59.123Z,20.48
2024-05-09T02:50:33.923Z,20.77
2024-05-09T02:53:05.438Z,20.58
2024-05-09T02:55:32.396Z,20.95
2024-05-09T02:57:59.222Z,20.55
2024-05-09T03:00:34.679Z,21.48
2024-05-09T03:03:08.323Z,19.73
2024-05-09T03:05:36.214Z,19.83
2024-05-09T03:08:03.143Z,19.52
2024-05-09T03:10:35.558Z,20.60
2024-05-09T03:13:08.444Z,18.70
2024-05-09T03:15:35.403Z,18.45
2024-05-09T03:18:02.495Z,18.77
2024-05-09T03:20:34.180Z,18.50
2024-05-09T03:23:02.963Z,20.75
2024-05-09T03:25:29.902Z,19.48
2024-05-09T03:27:56.584Z,19.23
2024-05-09T03:30:35.850Z,19.75
2024-05-09T03:33:15.415Z,18.90
2024-05-09T03:35:43.793Z,18.20
2024-05-09T03:38:10.527Z,18.73
2024-05-09T03:40:44.025Z,18.75
2024-05-09T03:43:10.647Z,18.92
2024-05-09T03:45:37.220Z,17.88
2024-05-09T03:48:04.027Z,18.58
2024-05-09T03:50:35.449Z,17.67
2024-05-09T03:53:03.232Z,17.58
2024-05-09T03:55:29.887Z,18.23
2024-05-09T03:57:56.845Z,19.55
2024-05-09T04:00:31.122Z,18.00
2024-05-09T04:03:06.054Z,17.13
2024-05-09T04:05:34.462Z,16.85
2024-05-09T04:08:01.567Z,17.38
2024-05-09T04:10:33.183Z,17.88
2024-05-09T04:13:01.695Z,17.40
2024-05-09T04:15:28.403Z,16.67
2024-05-09T04:17:55.844Z,17.10
2024-05-09T04:20:33.127Z,16.10
2024-05-09T04:23:06.262Z,16.20
2024-05-09T04:25:33.204Z,15.00
2024-05-09T04:27:59.813Z,15.75
2024-05-09T04:30:35.025Z,14.98
2024-05-09T04:33:06.932Z,14.27
2024-05-09T04:35:34.825Z,14.30
2024-05-09T04:38:01.644Z,14.63
2024-05-09T04:40:33.515Z,13.52
2024-05-09T04:43:03.693Z,14.07
2024-05-09T04:45:30.501Z,14.60
2024-05-09T04:47:57.511Z,14.30
2024-05-09T04:50:33.806Z,13.95
2024-05-09T04:53:05.185Z,14.13
2024-05-09T04:55:33.170Z,14.57
2024-05-09T04:57:59.964Z,13.98
2024-05-09T05:00:34.659Z,13.65
2024-05-09T05:03:10.507Z,13.43
2024-05-09T05:05:43.563Z,13.50
2024-05-09T05:08:12.436Z,12.88
2024-05-09T05:10:39.552Z,13.63
2024-05-09T05:13:23.702Z,13.70
2024-05-09T05:15:57.333Z,13.70
2024-05-09T05:18:28.570Z,12.48
2024-05-09T05:20:56.247Z,12.77
2024-05-09T05:23:23.433Z,12.63
2024-05-09T05:25:52.735Z,13.00
2024-05-09T05:28:20.087Z,12.23
2024-05-09T05:30:46.876Z,13.38
2024-05-09T05:33:14.709Z,12.27
2024-05-09T05:35:42.286Z,12.13
2024-05-09T05:38:09.912Z,12.52
2024-05-09T05:40:38.654Z,12.65
2024-05-09T05:43:10.791Z,12.57
2024-05-09T05:45:38.246Z,11.35
2024-05-09T05:48:06.636Z,12.25
2024-05-09T05:50:36.790Z,11.32
2024-05-09T05:55:32.821Z,11.82
2024-05-09T05:57:59.627Z,11.05
2024-05-09T06:00:34.112Z,10.90
2024-05-09T06:03:05.157Z,11.00
2024-05-09T06:05:32.495Z,11.38
2024-05-09T06:07:59.483Z,10.68
2024-05-09T06:10:34.455Z,10.38
2024-05-09T06:13:05.061Z,10.65
2024-05-09T06:15:31.735Z,10.18
2024-05-09T06:17:58.769Z,10.52
2024-05-09T06:20:34.626Z,9.82
2024-05-09T06:23:04.400Z,9.57
2024-05-09T06:25:31.444Z,10.45
2024-05-09T06:27:59.067Z,9.10
2024-05-09T06:30:34.460Z,9.25
2024-05-09T06:33:06.081Z,10.77
2024-05-09T06:35:34.040Z,9.73
2024-05-09T06:38:01.204Z,9.23
2024-05-09T06:40:36.350Z,9.32
2024-05-09T06:43:10.202Z,10.13
2024-05-09T06:48:04.020Z,10.20
2024-05-09T06:50:36.863Z,9.60
2024-05-09T06:53:05.050Z,8.98
2024-05-09T06:55:31.753Z,9.05
2024-05-09T06:57:58.348Z,9.20
2024-05-09T07:00:30.928Z,9.20
2024-05-09T07:03:13.661Z,9.07
2024-05-09T07:05:42.737Z,8.45
2024-05-09T07:08:09.664Z,8.55
2024-05-09T07:10:37.088Z,9.05
2024-05-09T07:13:10.904Z,8.73
2024-05-09T07:15:37.887Z,9.77
2024-05-09T07:18:19.939Z,9.75
2024-05-09T07:20:48.523Z,9.18
2024-05-09T07:23:16.337Z,9.38
2024-05-09T07:25:43.136Z,8.73
2024-05-09T07:28:21.050Z,9.20
2024-05-09T07:30:47.750Z,9.13
2024-05-09T07:33:19.351Z,9.05
2024-05-09T07:35:46.924Z,8.70
2024-05-09T07:38:13.982Z,9.27
2024-05-09T07:40:41.724Z,8.95
2024-05-09T07:43:11.490Z,8.93
2024-05-09T07:45:48.502Z,8.13
2024-05-09T07:53:39.204Z,7.47
2024-05-09T07:56:10.022Z,7.93
2024-05-09T07:58:37.362Z,7.78
2024-05-09T08:01:04.597Z,7.63
2024-05-09T08:03:33.988Z,6.57
2024-05-09T08:06:01.105Z,7.28
2024-05-09T08:08:27.716Z,8.32
2024-05-09T08:10:54.417Z,7.72
2024-05-09T08:13:21.240Z,7.55
2024-05-09T08:15:48.662Z,7.75
2024-05-09T08:18:15.740Z,7.80
2024-05-09T08:20:42.820Z,7.55
2024-05-09T08:23:11.094Z,7.38
2024-05-09T08:25:38.743Z,7.43
2024-05-09T08:28:05.725Z,7.07
2024-05-09T08:30:36.591Z,7.13
2024-05-09T08:33:05.596Z,7.22
2024-05-09T08:35:33.067Z,6.75
2024-05-09T08:37:59.861Z,7.25
2024-05-09T08:40:33.872Z,7.82
2024-05-09T08:43:06.799Z,6.93
2024-05-09T08:45:35.225Z,6.82
2024-05-09T08:48:07.652Z,7.22
2024-05-09T08:50:39.206Z,7.05
2024-05-09T08:53:07.756Z,7.25
2024-05-09T08:55:35.858Z,7.32
2024-05-09T08:58:05.608Z,7.32
2024-05-09T09:00:36.985Z,8.38
2024-05-09T09:03:07.813Z,5.80
2024-05-09T09:05:38.112Z,6.43
2024-05-09T09:08:07.814Z,6.65
2024-05-09T09:10:35.235Z,6.43
2024-05-09T09:13:04.451Z,7.80
2024-05-09T09:15:31.753Z,5.43
2024-05-09T09:18:00.388Z,5.20
2024-05-09T09:20:34.231Z,5.50
2024-05-09T09:23:03.637Z,5.53
2024-05-09T09:25:30.361Z,5.63
2024-05-09T09:27:58.301Z,5.38
2024-05-09T09:30:34.955Z,5.60
2024-05-09T09:33:05.374Z,5.65
2024-05-09T09:35:32.786Z,6.13
2024-05-09T09:38:02.806Z,5.20
2024-05-09T09:40:35.997Z,4.03
2024-05-09T09:43:09.707Z,4.30
2024-05-09T09:48:05.669Z,4.32
2024-05-09T09:50:35.256Z,4.35
2024-05-09T09:53:03.950Z,4.25
2024-05-09T09:55:32.751Z,6.30
2024-05-09T09:57:59.870Z,4.28
2024-05-09T10:00:32.630Z,4.05
2024-05-09T10:03:00.692Z,4.28
2024-05-09T10:05:28.446Z,4.20
2024-05-09T10:07:56.373Z,3.80
2024-05-09T10:10:31.335Z,4.68
2024-05-09T10:13:02.318Z,3.80
2024-05-09T10:15:29.253Z,3.83
2024-05-09T10:18:06.271Z,3.67
2024-05-09T10:20:46.074Z,4.70
2024-05-09T10:23:28.739Z,4.35
2024-05-09T10:26:00.326Z,3.60
2024-05-09T10:28:31.858Z,3.10
2024-05-09T10:31:13.265Z,3.22
2024-05-09T10:33:50.357Z,3.80
2024-05-09T10:36:25.405Z,3.60
2024-05-09T10:38:56.104Z,3.28
2024-05-09T10:41:23.587Z,5.63
2024-05-09T10:43:50.988Z,3.60
2024-05-09T10:46:20.705Z,3.20
2024-05-09T10:51:18.224Z,3.17
2024-05-09T10:53:46.434Z,3.28
2024-05-09T10:56:14.305Z,3.80
2024-05-09T10:58:41.167Z,3.40
2024-05-09T11:01:09.226Z,3.45
2024-05-09T11:03:36.641Z,3.70
2024-05-09T11:06:03.881Z,3.70
2024-05-09T11:08:32.793Z,3.92
2024-05-09T11:11:00.158Z,4.20
2024-05-09T11:13:34.075Z,4.60
2024-05-09T11:16:01.189Z,4.22
2024-05-09T11:18:32.313Z,3.95
2024-05-09T11:21:02.168Z,4.45
2024-05-09T11:23:30.635Z,4.00
2024-05-09T11:25:58.581Z,3.92
2024-05-09T11:28:26.901Z,4.28
2024-05-09T11:31:08.740Z,4.05
2024-05-09T11:33:40.788Z,4.00
2024-05-09T11:36:08.013Z,4.30
2024-05-09T11:38:34.931Z,3.83
2024-05-09T11:41:02.561Z,4.00
2024-05-09T11:43:29.259Z,5.13
2024-05-09T11:45:57.601Z,4.40
2024-05-09T11:48:25.786Z,4.50
2024-05-09T11:50:53.644Z,4.50
2024-05-09T11:53:20.220Z,4.40
2024-05-09T11:55:46.854Z,4.88
2024-05-09T11:58:17.210Z,4.50
2024-05-09T12:00:44.406Z,5.57
2024-05-09T12:03:11.133Z,4.60
2024-05-09T12:05:37.904Z,4.07
2024-05-09T12:08:04.978Z,4.15
2024-05-09T12:10:34.418Z,3.97
2024-05-09T12:13:04.955Z,4.50
2024-05-09T12:15:33.868Z,4.20
2024-05-09T12:18:03.400Z,4.13
2024-05-09T12:20:36.751Z,3.90
2024-05-09T12:23:06.618Z,4.53
2024-05-09T12:25:33.519Z,3.72
2024-05-09T12:28:00.649Z,3.97
2024-05-09T12:30:34.839Z,3.90
2024-05-09T12:33:05.805Z,4.30
2024-05-09T12:35:32.718Z,3.80
2024-05-09T12:37:59.432Z,3.53
2024-05-09T12:40:34.585Z,4.38
2024-05-09T12:43:04.978Z,3.53
2024-05-09T12:45:31.952Z,3.53
2024-05-09T12:47:58.956Z,3.80
2024-05-09T12:50:32.270Z,3.45
2024-05-09T12:53:01.605Z,3.35
2024-05-09T12:55:31.807Z,4.13
2024-05-09T12:58:04.282Z,4.22
2024-05-09T13:00:33.980Z,3.65
2024-05-09T13:03:01.550Z,4.20
2024-05-09T13:05:28.598Z,4.15
2024-05-09T13:07:56.656Z,3.50
2024-05-09T13:10:30.803Z,3.85
2024-05-09T13:13:00.014Z,3.90
2024-05-09T13:15:27.137Z,4.00
2024-05-09T13:17:55.837Z,4.47
2024-05-09T13:20:31.240Z,3.40
2024-05-09T13:23:01.925Z,4.07
2024-05-09T13:25:28.676Z,3.47
2024-05-09T13:27:56.437Z,3.17
2024-05-09T13:30:29.781Z,3.13
2024-05-09T13:33:05.905Z,4.05
2024-05-09T13:35:34.669Z,3.38
2024-05-09T13:38:02.200Z,3.75
2024-05-09T13:40:33.741Z,3.17
2024-05-09T13:43:05.611Z,3.78
2024-05-09T13:45:32.926Z,3.70
2024-05-09T13:48:00.206Z,3.53
2024-05-09T13:50:33.987Z,3.70
2024-05-09T13:53:05.077Z,3.55
2024-05-09T13:55:32.682Z,3.28
2024-05-09T13:57:59.414Z,4.00
2024-05-09T14:00:38.210Z,3.60
2024-05-09T14:03:11.670Z,3.13
2024-05-09T14:05:38.782Z,3.45
2024-05-09T14:08:05.999Z,3.35
2024-05-09T14:10:33.025Z,3.55
2024-05-09T14:13:00.751Z,3.53
2024-05-09T14:15:27.728Z,3.67
2024-05-09T14:17:55.292Z,3.55
2024-05-09T14:20:30.252Z,3.50
2024-05-09T14:22:59.611Z,3.72
2024-05-09T14:25:30.382Z,4.30
2024-05-09T14:28:00.211Z,4.13
2024-05-09T14:30:34.721Z,3.97
2024-05-09T14:33:05.269Z,3.72
2024-05-09T14:35:32.524Z,3.25
2024-05-09T14:37:59.314Z,3.92
2024-05-09T14:40:36.528Z,3.38
2024-05-09T14:43:08.228Z,3.35
2024-05-09T14:45:35.101Z,3.30
2024-05-09T14:48:02.795Z,3.67
2024-05-09T14:50:35.849Z,4.05
2024-05-09T14:53:06.619Z,3.40
2024-05-09T14:55:38.777Z,3.75
2024-05-09T14:58:09.714Z,4.70
2024-05-09T15:00:47.945Z,3.33
2024-05-09T15:03:18.601Z,3.88
2024-05-09T15:05:46.584Z,3.53
2024-05-09T15:08:13.201Z,3.55
2024-05-09T15:10:40.245Z,3.55
2024-05-09T15:13:08.891Z,3.08
2024-05-09T15:15:37.327Z,3.20
2024-05-09T15:18:05.692Z,4.22
2024-05-09T15:20:36.103Z,6.45
2024-05-09T15:23:06.466Z,7.65
2024-05-09T15:25:34.972Z,3.87
2024-05-09T15:28:02.052Z,3.70
2024-05-09T15:30:32.097Z,4.35
2024-05-09T15:33:01.393Z,3.75
2024-05-09T15:35:28.338Z,4.18
2024-05-09T15:37:55.297Z,3.80
2024-05-09T15:40:31.171Z,3.65
2024-05-09T15:43:05.792Z,3.83
2024-05-09T15:45:32.743Z,3.85
2024-05-09T15:47:59.931Z,3.72
2024-05-09T15:50:36.380Z,3.30
2024-05-09T15:53:07.225Z,3.50
2024-05-09T15:55:34.925Z,3.50
2024-05-09T15:58:02.804Z,3.92
2024-05-09T16:00:37.355Z,4.57
2024-05-09T16:03:08.115Z,4.18
2024-05-09T16:05:34.974Z,4.13
2024-05-09T16:08:02.127Z,3.72
2024-05-09T16:10:32.767Z,3.85
2024-05-09T16:13:01.905Z,3.70
2024-05-09T16:15:28.989Z,3.60
2024-05-09T16:17:56.466Z,3.90
2024-05-09T16:22:53.614Z,3.30
2024-05-09T16:25:20.394Z,3.08
2024-05-09T16:27:47.827Z,3.53
2024-05-09T16:30:24.131Z,3.85
2024-05-09T16:32:55.965Z,3.38
2024-05-09T16:35:22.670Z,3.80
2024-05-09T16:37:49.823Z,3.70
2024-05-09T16:40:25.306Z,3.70
2024-05-09T16:43:03.228Z,3.00
2024-05-09T16:45:30.052Z,3.60
2024-05-09T16:47:57.567Z,3.15
2024-05-09T16:50:29.487Z,3.20
2024-05-09T16:53:00.122Z,3.20
2024-05-09T16:55:27.057Z,3.88
2024-05-09T16:57:54.631Z,3.60
2024-05-09T17:00:31.381Z,4.00
2024-05-09T17:03:07.210Z,3.72
2024-05-09T17:05:35.283Z,3.60
2024-05-09T17:08:04.507Z,3.63
2024-05-09T17:10:34.113Z,3.90
2024-05-09T17:13:06.854Z,3.20
2024-05-09T17:15:35.365Z,3.30
2024-05-09T17:18:02.815Z,3.15
2024-05-09T17:20:34.049Z,3.10
2024-05-09T17:23:04.582Z,2.90
2024-05-09T17:25:31.795Z,2.95
2024-05-09T17:28:05.250Z,3.08
2024-05-09T17:30:36.356Z,3.38
2024-05-09T17:33:06.511Z,3.38
2024-05-09T17:35:33.399Z,3.15
2024-05-09T17:38:01.502Z,3.35
2024-05-09T17:40:33.492Z,2.95
2024-05-09T17:43:03.602Z,3.60
2024-05-09T17:45:30.810Z,4.55
2024-05-09T17:47:58.353Z,3.67
2024-05-09T17:50:31.503Z,3.30
2024-05-09T17:53:02.614Z,3.22
2024-05-09T17:55:29.585Z,3.70
2024-05-09T17:57:56.654Z,3.42
2024-05-09T18:00:33.353Z,4.40
2024-05-09T18:03:06.218Z,5.00
2024-05-09T18:05:35.980Z,4.78
2024-05-09T18:08:03.543Z,4.40
2024-05-09T18:10:36.046Z,4.15
2024-05-09T18:13:06.274Z,4.68
2024-05-09T18:15:33.424Z,5.50
2024-05-09T18:18:01.375Z,4.65
2024-05-09T18:20:37.546Z,5.20
2024-05-09T18:23:10.140Z,4.63
2024-05-09T18:25:36.761Z,4.78
2024-05-09T18:28:03.871Z,5.03
2024-05-09T18:30:34.998Z,5.97
2024-05-09T18:33:04.900Z,5.25
2024-05-09T18:35:32.620Z,5.20
2024-05-09T18:37:59.331Z,5.10
2024-05-09T18:40:33.448Z,6.15
2024-05-09T18:43:04.187Z,5.53
2024-05-09T18:45:31.145Z,5.18
2024-05-09T18:47:58.066Z,5.25
2024-05-09T18:50:33.749Z,5.53
2024-05-09T18:53:06.053Z,4.95
2024-05-09T18:55:33.169Z,6.15
2024-05-09T18:57:59.989Z,5.55
2024-05-09T19:00:33.874Z,6.05
2024-05-09T19:03:05.670Z,5.90
2024-05-09T19:05:35.028Z,5.75
2024-05-09T19:08:02.377Z,5.30
2024-05-09T19:10:34.023Z,4.60
2024-05-09T19:13:04.367Z,4.28
2024-05-09T19:15:33.947Z,3.90
2024-05-09T19:18:00.765Z,5.18
2024-05-09T19:20:33.180Z,7.15
2024-05-09T19:23:01.428Z,7.72
2024-05-09T19:25:27.996Z,8.95
2024-05-09T19:27:54.690Z,7.80
2024-05-09T19:30:29.901Z,7.43
2024-05-09T19:33:04.676Z,6.75
2024-05-09T19:35:31.784Z,5.57
2024-05-09T19:37:58.567Z,5.68
2024-05-09T19:40:31.243Z,5.05
2024-05-09T19:43:00.435Z,5.30
2024-05-09T19:45:27.158Z,5.63
2024-05-09T19:47:54.008Z,5.72
2024-05-09T19:50:27.100Z,4.70
2024-05-09T19:53:02.974Z,4.93
2024-05-09T19:55:29.645Z,4.97
2024-05-09T19:57:56.298Z,5.32
2024-05-09T20:00:29.458Z,4.07
2024-05-09T20:03:02.235Z,4.50
2024-05-09T20:05:31.094Z,4.43
2024-05-09T20:07:58.148Z,5.20
2024-05-09T20:10:31.066Z,5.07
2024-05-09T20:12:59.765Z,5.05
2024-05-09T20:15:26.662Z,5.10
2024-05-09T20:17:53.962Z,5.53
2024-05-09T20:20:31.915Z,5.07
2024-05-09T20:23:03.365Z,6.13
2024-05-09T20:25:30.042Z,5.82
2024-05-09T20:27:56.776Z,6.80
2024-05-09T20:30:30.630Z,6.95
2024-05-09T20:32:59.984Z,7.30
2024-05-09T20:35:26.919Z,6.82
2024-05-09T20:37:53.596Z,7.43
2024-05-09T20:40:28.338Z,7.18
2024-05-09T20:42:59.289Z,6.43
2024-05-09T20:45:26.197Z,6.35
2024-05-09T20:47:53.216Z,5.85
2024-05-09T20:50:28.440Z,6.47
2024-05-09T20:53:02.842Z,6.07
2024-05-09T20:55:29.957Z,5.95
2024-05-09T20:57:57.022Z,6.13
2024-05-09T21:00:30.307Z,6.22
2024-05-09T21:03:06.297Z,6.43
2024-05-09T21:05:33.690Z,6.88
2024-05-09T21:08:00.686Z,8.02
2024-05-09T21:10:32.075Z,9.00
2024-05-09T21:13:00.210Z,9.25
2024-05-09T21:15:26.827Z,9.23
2024-05-09T21:17:53.472Z,10.10
2024-05-09T21:20:24.404Z,8.85
2024-05-09T21:22:58.079Z,8.38
2024-05-09T21:25:24.731Z,8.85
2024-05-09T21:27:51.677Z,10.90
2024-05-09T21:30:27.376Z,12.82
2024-05-09T21:32:59.900Z,18.10
2024-05-09T21:35:26.710Z,18.73
2024-05-09T21:37:53.399Z,18.52
2024-05-09T21:40:27.313Z,19.77
2024-05-09T21:43:00.782Z,10.13
2024-05-09T21:45:27.588Z,13.23
2024-05-09T21:47:54.418Z,7.72
2024-05-09T21:50:27.905Z,7.53
2024-05-09T21:52:59.034Z,7.85
2024-05-09T21:55:25.816Z,9.00
2024-05-09T21:57:52.526Z,8.00
2024-05-09T22:00:28.787Z,7.50
2024-05-09T22:03:02.366Z,8.20
2024-05-09T22:05:29.322Z,8.40
2024-05-09T22:07:56.482Z,9.23
2024-05-09T22:10:27.156Z,7.25
2024-05-09T22:13:00.060Z,7.20
2024-05-09T22:15:27.059Z,8.00
2024-05-09T22:17:53.911Z,7.13
2024-05-09T22:20:28.796Z,6.30
2024-05-09T22:23:02.656Z,9.80
2024-05-09T22:25:30.995Z,9.77
2024-05-09T22:27:58.690Z,14.23
2024-05-09T22:30:34.058Z,14.38
2024-05-09T22:33:05.215Z,10.15
2024-05-09T22:35:32.087Z,9.80
2024-05-09T22:37:58.754Z,17.67
2024-05-09T22:40:37.897Z,27.23
2024-05-09T22:43:12.575Z,23.77
2024-05-09T22:45:39.632Z,11.13
2024-05-09T22:48:07.647Z,6.88
2024-05-09T22:50:34.714Z,6.75
2024-05-09T22:53:01.471Z,6.90
2024-05-09T22:55:28.221Z,7.45
2024-05-09T22:57:54.995Z,8.32
2024-05-09T23:00:29.452Z,7.78
2024-05-09T23:03:02.155Z,9.02
2024-05-09T23:05:29.834Z,9.60
2024-05-09T23:07:56.799Z,9.10
2024-05-09T23:10:31.452Z,8.25
2024-05-09T23:13:02.679Z,9.07
2024-05-09T23:15:29.546Z,8.30
2024-05-09T23:17:57.125Z,7.82
2024-05-09T23:20:33.425Z,8.50
2024-05-09T23:23:05.461Z,8.73
2024-05-09T23:25:32.492Z,8.95
2024-05-09T23:27:59.234Z,7.82
2024-05-09T23:30:34.020Z,7.80
2024-05-09T23:33:05.428Z,7.97
2024-05-09T23:35:32.231Z,7.68
2024-05-09T23:37:58.824Z,7.72
2024-05-09T23:40:36.837Z,8.25
2024-05-09T23:43:06.918Z,7.85
2024-05-09T23:45:33.889Z,7.13
2024-05-09T23:48:01.061Z,7.93
2024-05-09T23:50:34.367Z,7.35
2024-05-09T23:53:04.659Z,7.15
2024-05-09T23:55:32.104Z,6.93
2024-05-09T23:57:59.357Z,6.97
